Time;durP1;ratioP1;P1;durP2;ratioP2;P2;SDS_P1;SDS_P2;PMS_P1;PMS_P2;Temp;Humidity;BMP_temperature;BMP_pressure;BME280_temperature;BME280_humidity;BME280_pressure;Samples;Min_cycle;Max_cycle;Signal;HPM_P1;HPM_P2
2023/08/19 00:02:43;;;;;;;5.13;3.00;;;;;;;24.82;47.92;99537.13;10426293;28;20235;-69
2023/08/19 00:07:45;;;;;;;4.13;2.90;;;;;;;24.53;48.17;99562.47;10414924;28;20621;-66
2023/08/19 00:12:47;;;;;;;6.13;3.25;;;;;;;23.06;51.64;99568.91;10427358;28;20239;-68
2023/08/19 00:17:48;;;;;;;5.78;3.60;;;;;;;22.20;53.25;99556.75;10426052;28;20322;-68
2023/08/19 00:22:50;;;;;;;9.65;3.60;;;;;;;22.68;52.30;99522.78;10429102;28;20232;-68
2023/08/19 00:27:52;;;;;;;6.30;3.53;;;;;;;22.95;51.34;99516.25;10420848;28;20255;-68
2023/08/19 00:32:54;;;;;;;4.15;3.10;;;;;;;24.37;49.37;99501.59;10421021;28;20235;-68
2023/08/19 00:37:56;;;;;;;4.65;3.00;;;;;;;23.86;49.28;99540.94;10427026;28;20784;-68
2023/08/19 00:42:58;;;;;;;6.22;2.88;;;;;;;23.41;50.41;99551.69;10423231;28;20241;-68
2023/08/19 00:47:59;;;;;;;5.18;2.88;;;;;;;24.92;47.43;99517.88;10425175;28;20239;-68
2023/08/19 00:53:01;;;;;;;6.80;2.65;;;;;;;24.41;47.81;99553.78;10421918;28;20238;-68
2023/08/19 00:58:04;;;;;;;5.28;2.80;;;;;;;25.34;46.76;99524.63;10424593;28;20236;-68
2023/08/19 01:03:06;;;;;;;4.65;2.72;;;;;;;25.90;45.82;99530.56;10423442;28;20228;-68
2023/08/19 01:08:12;;;;;;;4.82;3.22;;;;;;;25.28;47.35;99531.25;10423646;28;20228;-67
2023/08/19 01:13:15;;;;;;;4.05;2.83;;;;;;;24.94;46.97;99553.97;10426450;28;20332;-68
2023/08/19 01:18:17;;;;;;;4.30;3.10;;;;;;;25.19;47.03;99543.91;10419026;28;20239;-68
2023/08/19 01:23:29;;;;;;;4.13;3.00;;;;;;;25.90;45.97;99530.56;10422603;28;20412;-68
2023/08/19 01:28:31;;;;;;;5.63;2.90;;;;;;;24.78;47.79;99547.00;10420213;28;20278;-68
2023/08/19 01:33:33;;;;;;;5.57;3.42;;;;;;;24.98;47.15;99526.84;10424806;28;20238;-68
2023/08/19 01:38:51;;;;;;;8.00;3.10;;;;;;;25.70;46.72;99515.97;10422654;28;20242;-68
2023/08/19 01:43:54;;;;;;;6.93;2.95;;;;;;;26.06;46.14;99510.03;10421722;28;20236;-68
2023/08/19 01:48:55;;;;;;;7.55;3.35;;;;;;;24.59;48.93;99520.28;10421449;28;20301;-68
2023/08/19 01:53:57;;;;;;;6.85;3.20;;;;;;;23.17;50.89;99534.25;10423265;28;20661;-68
2023/08/19 01:58:59;;;;;;;5.07;3.22;;;;;;;23.06;51.55;99485.16;10419697;28;20794;-67
2023/08/19 02:04:00;;;;;;;6.25;3.55;;;;;;;24.57;48.50;99481.47;10422093;28;20239;-68
2023/08/19 02:09:02;;;;;;;5.47;2.75;;;;;;;23.40;50.16;99546.50;10423588;28;20793;-67
2023/08/19 02:14:04;;;;;;;5.45;3.38;;;;;;;24.86;47.43;99513.53;10421472;28;20228;-67
2023/08/19 02:19:05;;;;;;;6.22;3.33;;;;;;;22.63;51.33;99539.16;10426308;28;20233;-68
2023/08/19 02:24:07;;;;;;;6.28;3.45;;;;;;;21.93;52.40;99550.38;10422205;28;20231;-68
2023/08/19 02:29:09;;;;;;;6.20;3.53;;;;;;;22.78;51.64;99510.25;10414906;28;20891;-68
2023/08/19 02:34:11;;;;;;;4.68;3.35;;;;;;;21.85;53.50;99533.72;10422099;28;20227;-68
2023/08/19 02:39:12;;;;;;;5.03;3.72;;;;;;;22.33;52.83;99509.91;10421221;28;20250;-68
2023/08/19 02:44:14;;;;;;;4.43;3.22;;;;;;;23.50;50.62;99472.78;10418980;28;20265;-67
2023/08/19 02:49:16;;;;;;;4.18;2.83;;;;;;;25.02;47.91;99506.84;10419286;28;20251;-67
2023/08/19 02:54:17;;;;;;;4.97;3.55;;;;;;;24.72;48.03;99552.50;10421758;28;20314;-67
2023/08/19 02:59:19;;;;;;;4.35;3.42;;;;;;;24.53;48.04;99549.59;10418931;28;20377;-67
2023/08/19 03:04:21;;;;;;;6.00;3.05;;;;;;;25.34;46.76;99523.78;10416703;28;20335;-67
2023/08/19 03:09:22;;;;;;;5.43;2.75;;;;;;;23.87;49.15;99572.63;10423484;28;21922;-67
2023/08/19 03:14:24;;;;;;;4.93;2.80;;;;;;;24.92;47.85;99532.38;10418921;28;20228;-67
2023/08/19 03:19:26;;;;;;;4.75;3.20;;;;;;;24.85;48.17;99540.09;10414107;28;20250;-67
2023/08/19 03:24:27;;;;;;;4.65;3.05;;;;;;;23.85;49.08;99566.59;10418119;28;20223;-67
2023/08/19 03:29:29;;;;;;;4.70;3.40;;;;;;;24.59;48.00;99528.50;10417116;28;20298;-67
2023/08/19 03:34:31;;;;;;;4.15;2.90;;;;;;;24.38;48.91;99508.69;10416988;28;20315;-68
2023/08/19 03:39:32;;;;;;;4.00;3.22;;;;;;;23.28;50.08;99563.19;10417108;28;20247;-67
2023/08/19 03:44:34;;;;;;;3.53;2.97;;;;;;;23.70;49.97;99515.59;10416109;28;20318;-67
2023/08/19 03:49:36;;;;;;;5.05;3.28;;;;;;;22.49;51.92;99538.84;10427527;28;20243;-67
2023/08/19 03:54:38;;;;;;;4.22;3.15;;;;;;;23.73;49.64;99519.66;10424937;28;20367;-67
2023/08/19 03:59:39;;;;;;;3.90;3.22;;;;;;;22.24;52.37;99536.06;10430613;28;20231;-67
2023/08/19 04:04:59;;;;;;;5.10;3.80;;;;;;;22.02;53.05;99549.91;10426413;28;20337;-67
2023/08/19 04:10:01;;;;;;;6.80;3.72;;;;;;;23.14;50.59;99521.97;10396691;28;20254;-67
2023/08/19 04:15:03;;;;;;;10.45;3.97;;;;;;;22.97;51.15;99535.88;10423123;28;20286;-67
2023/08/19 04:20:08;;;;;;;5.25;3.58;;;;;;;24.00;49.05;99531.03;10381995;28;20300;-67
2023/08/19 04:25:11;;;;;;;5.50;3.60;;;;;;;24.03;49.00;99551.50;10381598;28;20233;-67
2023/08/19 04:30:13;;;;;;;4.63;4.00;;;;;;;24.61;48.45;99534.50;10383821;28;20606;-67
2023/08/19 04:35:15;;;;;;;4.13;3.13;;;;;;;23.96;49.39;99559.19;10383882;28;20246;-67
2023/08/19 04:40:16;;;;;;;5.72;3.80;;;;;;;21.68;53.05;99605.53;10382029;28;20243;-68
2023/08/19 04:45:18;;;;;;;4.00;3.20;;;;;;;22.71;51.76;99526.91;10384264;28;20467;-68
2023/08/19 04:50:21;;;;;;;5.38;3.72;;;;;;;23.87;48.85;99542.56;10384545;28;20315;-68
2023/08/19 04:55:23;;;;;;;4.88;3.40;;;;;;;24.07;48.85;99555.28;10376817;28;20244;-68
2023/08/19 05:00:25;;;;;;;7.50;3.60;;;;;;;23.42;50.18;99588.81;10372613;28;20323;-67
2023/08/19 05:05:27;;;;;;;4.28;3.50;;;;;;;24.33;48.35;99575.16;10384696;28;20319;-68
2023/08/19 05:10:28;;;;;;;5.32;3.60;;;;;;;24.12;48.94;99581.78;10379646;28;20324;-67
2023/08/19 05:15:30;;;;;;;3.50;3.15;;;;;;;24.61;48.19;99561.03;10384148;28;20228;-67
2023/08/19 05:20:32;;;;;;;5.30;3.67;;;;;;;23.94;49.61;99581.34;10381491;28;20239;-68
2023/08/19 05:25:33;;;;;;;6.43;3.85;;;;;;;23.84;50.02;99600.50;10385551;28;20244;-67
2023/08/19 05:30:35;;;;;;;5.18;3.38;;;;;;;23.47;50.42;99611.75;10380342;28;20236;-67
2023/08/19 05:35:37;;;;;;;6.97;3.92;;;;;;;23.41;51.36;99602.75;10383875;28;20318;-68
2023/08/19 05:40:38;;;;;;;6.90;4.53;;;;;;;24.05;50.79;99576.63;10383856;28;23916;-67
2023/08/19 05:45:40;;;;;;;7.82;5.35;;;;;;;24.63;50.48;99546.00;10384717;28;20355;-67
2023/08/19 05:50:42;;;;;;;7.22;5.72;;;;;;;24.74;50.89;99574.91;10379455;28;20279;-67
2023/08/19 05:55:43;;;;;;;8.75;5.80;;;;;;;24.65;51.71;99601.22;10380308;28;20742;-67
2023/08/19 06:00:45;;;;;;;7.95;6.25;;;;;;;24.26;52.50;99612.09;10372248;28;20271;-67
2023/08/19 06:05:47;;;;;;;8.38;7.03;;;;;;;24.55;52.61;99585.69;10377541;28;20232;-67
2023/08/19 06:11:00;;;;;;;10.02;6.93;;;;;;;24.28;53.22;99594.31;10381952;28;20652;-67
2023/08/19 06:16:06;;;;;;;9.55;7.10;;;;;;;24.54;52.39;99591.44;10375534;28;20626;-67
2023/08/19 06:21:08;;;;;;;11.20;6.78;;;;;;;24.75;51.77;99605.84;10379188;28;20765;-67
2023/08/19 06:26:09;;;;;;;8.68;6.65;;;;;;;24.86;52.40;99601.09;10376050;28;20312;-68
2023/08/19 06:31:11;;;;;;;10.10;6.25;;;;;;;24.73;52.11;99632.66;10378645;28;20745;-67
2023/08/19 06:36:22;;;;;;;7.82;6.10;;;;;;;25.72;50.71;99608.88;10374644;28;20330;-67
2023/08/19 06:41:24;;;;;;;9.90;6.18;;;;;;;25.56;50.64;99630.13;10380960;28;20232;-67
2023/08/19 06:46:26;;;;;;;10.93;5.90;;;;;;;25.36;50.87;99664.78;10379093;28;20961;-67
2023/08/19 06:51:29;;;;;;;7.82;5.30;;;;;;;25.29;50.14;99683.47;10383222;28;20362;-68
2023/08/19 06:56:43;;;;;;;9.52;6.38;;;;;;;25.01;51.21;99685.03;10381754;28;20302;-68
2023/08/19 07:01:50;;;;;;;8.20;5.90;;;;;;;25.74;49.36;99665.00;10375857;28;20236;-67
2023/08/19 07:06:54;;;;;;;9.43;6.03;;;;;;;26.02;49.02;99688.00;10377769;28;20232;-68
2023/08/19 07:11:57;;;;;;;10.68;6.00;;;;;;;26.80;47.03;99660.47;10377830;28;20228;-67
2023/08/19 07:17:00;;;;;;;9.73;5.97;;;;;;;25.42;49.18;99702.00;10381745;28;20332;-68
2023/08/19 07:22:03;;;;;;;8.70;5.38;;;;;;;25.69;48.93;99699.81;10394409;28;20241;-68
2023/08/19 07:27:05;;;;;;;8.77;5.30;;;;;;;26.57;48.23;99662.16;10408589;28;20240;-68
2023/08/19 07:32:08;;;;;;;7.10;5.75;;;;;;;25.36;49.71;99702.31;10429178;28;20231;-67
2023/08/19 07:37:10;;;;;;;11.68;5.72;;;;;;;25.52;49.18;99700.25;10432449;28;20243;-67
2023/08/19 07:42:12;;;;;;;7.32;5.47;;;;;;;26.21;48.37;99674.38;10433279;28;20259;-67
2023/08/19 07:47:14;;;;;;;6.07;5.20;;;;;;;25.87;48.63;99687.38;10431668;28;20236;-68
2023/08/19 07:52:15;;;;;;;6.30;5.03;;;;;;;27.07;46.92;99673.50;10436091;28;20259;-68
2023/08/19 07:57:17;;;;;;;6.38;4.68;;;;;;;26.37;47.87;99707.94;10421216;28;20246;-66
2023/08/19 08:02:19;;;;;;;7.93;4.78;;;;;;;25.51;48.95;99754.22;10434725;28;20327;-68
2023/08/19 08:07:21;;;;;;;8.63;4.75;;;;;;;26.32;46.78;99707.19;10424877;28;23616;-68
2023/08/19 08:12:23;;;;;;;4.65;3.92;;;;;;;26.95;45.85;99704.16;10429991;28;20228;-68
2023/08/19 08:17:25;;;;;;;4.72;4.10;;;;;;;26.01;47.08;99734.88;10434963;28;20700;-68
2023/08/19 08:22:26;;;;;;;7.75;4.30;;;;;;;27.33;45.90;99700.59;10429625;28;20219;-68
2023/08/19 08:27:28;;;;;;;6.00;4.35;;;;;;;27.23;45.39;99726.28;10425598;28;20235;-68
2023/08/19 08:32:30;;;;;;;6.28;4.47;;;;;;;28.55;44.32;99702.19;10434800;28;20229;-68
2023/08/19 08:37:32;;;;;;;8.20;4.65;;;;;;;28.01;44.63;99717.56;10427684;28;20228;-68
2023/08/19 08:42:34;;;;;;;8.73;4.50;;;;;;;27.18;46.11;99709.88;10429166;28;20298;-68
2023/08/19 08:47:39;;;;;;;7.28;4.80;;;;;;;28.16;44.82;99708.22;10426258;28;20638;-68
2023/08/19 08:52:41;;;;;;;8.82;4.55;;;;;;;27.64;46.13;99700.06;10427156;28;20381;-68
2023/08/19 08:57:43;;;;;;;7.10;4.80;;;;;;;28.36;44.41;99698.78;10427511;28;20236;-68
2023/08/19 09:02:46;;;;;;;6.88;4.57;;;;;;;28.78;43.93;99697.59;10429319;28;20310;-69
2023/08/19 09:07:52;;;;;;;7.80;4.68;;;;;;;27.44;45.13;99735.00;10423999;28;20242;-68
2023/08/19 09:13:00;;;;;;;7.55;4.57;;;;;;;28.38;45.00;99713.03;10431115;28;20300;-68
2023/08/19 09:18:02;;;;;;;7.50;4.35;;;;;;;28.14;45.13;99715.94;10432423;28;24081;-67
2023/08/19 09:23:05;;;;;;;8.13;6.03;;;;;;;28.68;43.72;99694.25;10429106;28;20227;-67
2023/08/19 09:28:16;;;;;;;6.00;4.07;;;;;;;28.33;44.56;99697.44;10420860;28;20232;-67
2023/08/19 09:33:21;;;;;;;8.73;4.88;;;;;;;28.65;44.24;99670.88;10426380;28;21022;-68
2023/08/19 09:38:24;;;;;;;5.05;3.72;;;;;;;27.98;43.63;99702.50;10423477;28;20468;-67
2023/08/19 09:43:26;;;;;;;11.32;5.68;;;;;;;28.79;43.03;99679.13;10424964;28;20256;-67
2023/08/19 09:48:27;;;;;;;9.73;3.90;;;;;;;28.69;42.68;99698.63;10422408;28;20232;-68
2023/08/19 09:53:32;;;;;;;9.30;4.20;;;;;;;28.76;42.89;99704.53;10425849;28;20309;-68
2023/08/19 09:58:34;;;;;;;4.57;3.92;;;;;;;28.73;42.76;99714.22;10422218;28;20329;-67
2023/08/19 10:03:36;;;;;;;7.05;4.32;;;;;;;27.39;44.40;99726.84;10418900;28;20237;-67
2023/08/19 10:08:42;;;;;;;6.95;3.88;;;;;;;28.97;42.51;99686.41;10422351;28;20243;-67
2023/08/19 10:13:45;;;;;;;7.50;4.03;;;;;;;28.27;43.77;99717.91;10416584;28;20794;-67
2023/08/19 10:18:47;;;;;;;7.18;3.78;;;;;;;28.05;44.40;99724.91;10423856;28;20780;-67
2023/08/19 10:23:50;;;;;;;8.40;3.92;;;;;;;27.41;44.73;99734.81;10417676;28;20243;-67
2023/08/19 10:29:08;;;;;;;5.90;3.85;;;;;;;30.12;42.24;99666.72;10417065;28;20232;-67
2023/08/19 10:34:30;;;;;;;9.25;4.53;;;;;;;29.82;43.13;99685.69;10419922;28;20286;-68
2023/08/19 10:39:31;;;;;;;7.20;4.50;;;;;;;28.68;43.27;99713.50;10415904;28;20726;-67
2023/08/19 10:44:33;;;;;;;7.10;4.35;;;;;;;28.58;43.77;99729.09;10416095;28;20232;-67
2023/08/19 10:49:36;;;;;;;8.18;4.40;;;;;;;29.65;42.38;99718.72;10422920;28;20319;-67
2023/08/19 10:54:41;;;;;;;6.95;4.60;;;;;;;29.53;42.61;99738.56;10413962;28;20240;-67
2023/08/19 10:59:47;;;;;;;7.47;4.80;;;;;;;29.24;43.24;99719.72;10424709;28;20259;-67
2023/08/19 11:06:18;;;;;;;7.15;4.18;;;;;;;28.19;45.77;99660.88;10415602;28;21211;-67
2023/08/19 11:11:20;;;;;;;10.00;4.53;;;;;;;27.79;45.06;99685.28;10376751;28;20246;-67
2023/08/19 11:16:28;;;;;;;8.75;4.13;;;;;;;27.64;44.89;99692.63;10335117;28;20301;-66
2023/08/19 11:21:31;;;;;;;8.63;4.05;;;;;;;27.87;45.07;99684.56;10357463;28;20455;-66
2023/08/19 11:26:33;;;;;;;5.63;4.45;;;;;;;27.72;44.73;99712.31;10373636;28;20634;-66
2023/08/19 11:31:36;;;;;;;10.45;3.80;;;;;;;27.77;45.64;99715.81;10371965;28;20256;-68
2023/08/19 11:36:39;;;;;;;7.13;4.43;;;;;;;27.92;44.82;99706.47;10345577;28;20241;-66
2023/08/19 11:41:42;;;;;;;8.70;4.53;;;;;;;28.38;44.58;99704.78;10338125;28;20244;-66
2023/08/19 11:46:44;;;;;;;6.38;4.15;;;;;;;27.21;45.91;99747.72;10337127;28;20257;-66
2023/08/19 11:51:45;;;;;;;6.30;3.95;;;;;;;27.00;46.66;99752.69;10341268;28;20232;-66
2023/08/19 11:56:55;;;;;;;5.45;3.97;;;;;;;27.03;46.80;99774.06;10337048;28;20232;-66
2023/08/19 12:01:59;;;;;;;5.90;4.10;;;;;;;26.52;47.41;99758.25;10344489;28;20351;-66
2023/08/19 12:07:10;;;;;;;7.22;4.25;;;;;;;27.01;46.69;99786.44;10339835;28;20319;-66
2023/08/19 12:12:12;;;;;;;7.28;4.38;;;;;;;28.18;45.23;99747.22;10343613;28;20275;-67
2023/08/19 12:17:13;;;;;;;6.97;4.20;;;;;;;28.05;45.73;99768.09;10312542;28;20244;-66
2023/08/19 12:22:15;;;;;;;6.75;4.07;;;;;;;28.25;45.44;99763.38;10314740;28;20709;-67
2023/08/19 12:27:17;;;;;;;6.70;4.00;;;;;;;29.89;43.36;99738.47;10313671;28;20225;-66
2023/08/19 12:32:18;;;;;;;7.63;4.40;;;;;;;29.37;44.35;99765.69;10308857;28;20304;-67
2023/08/19 12:37:20;;;;;;;7.15;4.25;;;;;;;28.42;46.21;99800.16;10312609;28;20229;-67
2023/08/19 12:42:22;;;;;;;11.65;4.97;;;;;;;28.91;45.08;99780.47;10322798;28;20229;-66
2023/08/19 12:47:40;;;;;;;6.95;4.28;;;;;;;29.47;44.92;99767.34;10349574;28;20236;-67
2023/08/19 12:52:42;;;;;;;6.28;4.40;;;;;;;28.52;46.32;99804.63;10354134;28;20228;-67
2023/08/19 12:57:44;;;;;;;7.20;4.30;;;;;;;29.68;44.56;99770.47;10349274;28;20251;-67
2023/08/19 13:02:46;;;;;;;5.55;4.05;;;;;;;28.79;46.33;99792.00;10351742;28;20335;-66
2023/08/19 13:07:48;;;;;;;8.07;4.53;;;;;;;29.43;45.22;99786.47;10345845;28;20660;-66
2023/08/19 13:12:50;;;;;;;7.38;4.43;;;;;;;28.85;46.99;99796.28;10345025;28;20217;-66
2023/08/19 13:17:51;;;;;;;7.45;4.22;;;;;;;28.70;47.55;99786.41;10345555;28;20346;-66
2023/08/19 13:22:54;;;;;;;5.80;4.43;;;;;;;28.10;48.51;99820.25;10343395;28;20229;-67
2023/08/19 13:27:56;;;;;;;7.47;4.00;;;;;;;28.99;47.18;99795.47;10337586;28;20719;-67
2023/08/19 13:32:58;;;;;;;7.43;4.43;;;;;;;29.52;46.12;99803.91;10314756;28;20291;-67
2023/08/19 13:38:00;;;;;;;7.63;4.60;;;;;;;29.77;46.29;99801.66;10300381;28;20237;-67
2023/08/19 13:43:02;;;;;;;6.55;4.75;;;;;;;28.96;47.41;99824.41;10303327;28;20230;-66
2023/08/19 13:48:04;;;;;;;6.28;4.68;;;;;;;29.32;46.28;99815.41;10303116;28;20246;-66
2023/08/19 13:53:16;;;;;;;6.72;5.30;;;;;;;29.84;45.20;99804.81;10303346;28;20238;-67
2023/08/19 13:58:17;;;;;;;6.07;3.83;;;;;;;27.60;45.88;99888.66;10298421;28;20241;-67
2023/08/19 14:03:20;;;;;;;5.72;3.45;;;;;;;28.23;43.78;99866.25;10303273;28;20240;-66
2023/08/19 14:08:22;;;;;;;4.88;3.10;;;;;;;28.24;44.58;99867.09;10305304;28;20234;-67
2023/08/19 14:13:28;;;;;;;4.28;2.88;;;;;;;27.99;44.44;99882.06;10297801;28;20230;-67
2023/08/19 14:18:30;;;;;;;8.05;3.40;;;;;;;29.68;42.32;99823.66;10295690;28;20233;-66
2023/08/19 14:23:32;;;;;;;4.22;2.90;;;;;;;28.93;44.02;99869.09;10302195;28;20611;-66
2023/08/19 14:28:33;;;;;;;3.42;3.13;;;;;;;28.78;43.32;99868.28;10293288;28;20234;-66
2023/08/19 14:33:38;;;;;;;5.63;3.08;;;;;;;29.97;43.07;99838.13;10297874;28;20321;-66
2023/08/19 14:38:40;;;;;;;3.13;2.78;;;;;;;29.79;41.95;99843.53;10297283;28;20328;-66
2023/08/19 14:43:42;;;;;;;5.95;2.97;;;;;;;30.25;41.94;99847.09;10294221;28;20828;-66
2023/08/19 14:48:43;;;;;;;5.38;2.92;;;;;;;30.04;42.92;99846.75;10303348;28;20236;-66
2023/08/19 14:53:45;;;;;;;6.72;3.20;;;;;;;29.42;44.05;99852.91;10297076;28;20288;-66
2023/08/19 14:58:47;;;;;;;6.28;3.30;;;;;;;30.52;43.19;99823.22;10293322;28;20233;-66
2023/08/19 15:03:48;;;;;;;4.03;3.35;;;;;;;28.90;44.34;99880.75;10295252;28;20792;-66
2023/08/19 15:08:50;;;;;;;4.00;3.03;;;;;;;30.12;43.21;99823.97;10294536;28;20556;-66
2023/08/19 15:13:52;;;;;;;5.32;3.47;;;;;;;30.29;43.34;99844.50;10293958;28;20242;-66
2023/08/19 15:18:55;;;;;;;4.20;3.50;;;;;;;30.65;42.93;99833.28;10296043;28;20230;-66
2023/08/19 15:23:56;;;;;;;5.07;3.42;;;;;;;30.72;43.28;99839.19;10296262;28;20732;-66
2023/08/19 15:28:58;;;;;;;7.80;3.42;;;;;;;30.34;43.73;99864.50;10296605;28;20230;-67
2023/08/19 15:34:00;;;;;;;5.43;3.13;;;;;;;28.96;44.92;99882.25;10289820;28;20234;-66
2023/08/19 15:39:02;;;;;;;3.60;3.00;;;;;;;29.41;43.56;99868.66;10295725;28;20324;-66
2023/08/19 15:44:04;;;;;;;6.38;3.83;;;;;;;28.38;44.50;99886.38;10292381;28;20230;-66
2023/08/19 15:49:06;;;;;;;5.97;3.25;;;;;;;28.00;45.78;99892.75;10301942;28;20234;-66
2023/08/19 15:54:08;;;;;;;6.82;3.53;;;;;;;29.63;43.53;99859.63;10308059;28;20230;-66
2023/08/19 15:59:09;;;;;;;5.97;3.15;;;;;;;28.07;45.90;99900.63;10302218;28;20226;-66
2023/08/19 16:04:11;;;;;;;5.97;3.67;;;;;;;28.36;45.75;99886.66;10301375;28;20611;-66
2023/08/19 16:09:15;;;;;;;4.30;3.80;;;;;;;28.40;45.30;99887.69;10304107;28;20226;-66
2023/08/19 16:14:16;;;;;;;4.55;3.67;;;;;;;28.10;46.19;99890.94;10301610;28;20288;-66
2023/08/19 16:19:18;;;;;;;6.03;3.40;;;;;;;29.99;43.84;99844.94;10301210;28;20673;-66
2023/08/19 16:24:20;;;;;;;5.20;3.60;;;;;;;28.22;46.98;99883.88;10301404;28;20309;-66
2023/08/19 16:29:22;;;;;;;6.68;3.85;;;;;;;28.81;45.33;99891.63;10300194;28;20234;-65
2023/08/19 16:34:23;;;;;;;5.95;3.58;;;;;;;27.91;47.61;99912.97;10300693;28;20226;-66
2023/08/19 16:39:25;;;;;;;5.03;3.70;;;;;;;29.68;45.24;99853.19;10315244;28;20250;-65
2023/08/19 16:44:27;;;;;;;5.68;3.75;;;;;;;29.28;46.01;99877.75;10296632;28;20743;-65
2023/08/19 16:49:28;;;;;;;8.82;4.35;;;;;;;28.70;46.48;99892.97;10300553;28;20229;-65
2023/08/19 16:54:30;;;;;;;5.88;4.45;;;;;;;29.22;46.17;99876.22;10296153;28;20325;-65
2023/08/19 16:59:32;;;;;;;5.20;3.78;;;;;;;28.45;46.96;99914.28;10291190;28;20222;-65
2023/08/19 17:04:34;;;;;;;6.63;5.18;;;;;;;29.75;45.12;99863.78;10298949;28;20255;-65
2023/08/19 17:09:35;;;;;;;7.32;4.22;;;;;;;29.28;45.29;99875.00;10303982;28;20233;-66
2023/08/19 17:14:37;;;;;;;5.10;4.10;;;;;;;30.22;44.26;99867.84;10328302;28;20320;-66
2023/08/19 17:19:39;;;;;;;9.52;4.72;;;;;;;29.93;45.51;99860.00;10303972;28;20225;-66
2023/08/19 17:24:41;;;;;;;6.50;4.07;;;;;;;28.42;48.22;99887.38;10301836;28;20261;-66
2023/08/19 17:29:43;;;;;;;8.88;4.47;;;;;;;29.29;46.52;99877.44;10302662;28;20329;-66
2023/08/19 17:34:44;;;;;;;15.75;13.65;;;;;;;29.61;46.96;99888.63;10304654;28;20964;-66
2023/08/19 17:39:48;;;;;;;11.35;7.78;;;;;;;30.20;45.31;99872.84;10305575;28;20241;-66
2023/08/19 17:44:53;;;;;;;6.53;4.80;;;;;;;29.99;46.12;99882.75;10298342;28;20725;-65
2023/08/19 17:49:55;;;;;;;6.10;4.28;;;;;;;28.91;47.61;99912.66;10305628;28;20241;-65
2023/08/19 17:54:57;;;;;;;6.65;4.55;;;;;;;30.00;45.53;99884.38;10297630;28;20230;-66
2023/08/19 17:59:58;;;;;;;6.43;4.75;;;;;;;29.12;47.27;99899.28;10299413;28;20298;-66
2023/08/19 18:05:00;;;;;;;9.57;5.00;;;;;;;29.43;46.24;99896.69;10298829;28;20300;-66
2023/08/19 18:10:02;;;;;;;6.10;4.50;;;;;;;29.67;47.01;99893.72;10301366;28;20599;-65
2023/08/19 18:15:04;;;;;;;5.32;4.38;;;;;;;29.73;46.13;99896.34;10297550;28;20226;-66
2023/08/19 18:20:06;;;;;;;6.60;4.60;;;;;;;31.17;44.43;99860.28;10297981;28;20281;-65
2023/08/19 18:25:08;;;;;;;9.40;4.50;;;;;;;30.91;44.84;99885.88;10291276;28;21019;-66
2023/08/19 18:30:10;;;;;;;5.28;4.38;;;;;;;30.47;45.79;99895.91;10300485;28;20210;-65
2023/08/19 18:35:12;;;;;;;5.13;4.32;;;;;;;30.40;46.48;99881.75;10295880;28;20876;-65
2023/08/19 18:40:15;;;;;;;6.55;4.55;;;;;;;30.93;45.09;99877.25;10299761;28;20586;-65
2023/08/19 18:45:16;;;;;;;11.52;5.72;;;;;;;31.11;45.11;99883.69;10297147;28;20238;-65
2023/08/19 18:50:18;;;;;;;8.55;7.50;;;;;;;30.97;45.13;99895.69;10289755;28;20760;-66
2023/08/19 18:55:19;;;;;;;7.93;5.95;;;;;;;30.80;45.90;99899.16;10294821;28;20234;-66
2023/08/19 19:00:21;;;;;;;6.15;5.28;;;;;;;30.79;45.88;99899.47;10297554;28;20796;-66
2023/08/19 19:05:23;;;;;;;6.18;5.05;;;;;;;30.07;46.89;99934.44;10294656;28;20242;-66
2023/08/19 19:10:25;;;;;;;7.68;4.97;;;;;;;29.76;47.73;99937.91;10295701;28;20244;-65
2023/08/19 19:15:27;;;;;;;6.80;5.00;;;;;;;30.68;45.51;99906.41;10295440;28;20273;-65
2023/08/19 19:20:29;;;;;;;51.17;46.08;;;;;;;30.25;46.59;99919.63;10302508;28;20238;-67
2023/08/19 19:25:30;;;;;;;8.20;5.88;;;;;;;27.34;52.12;99968.69;10300954;28;20333;-68
2023/08/19 19:30:32;;;;;;;7.68;5.70;;;;;;;29.51;47.74;99912.50;10305471;28;20234;-68
2023/08/19 19:35:34;;;;;;;6.75;5.40;;;;;;;29.63;47.02;99927.72;10309585;28;20529;-68
2023/08/19 19:40:36;;;;;;;7.80;5.38;;;;;;;30.06;46.26;99927.28;10305882;28;20225;-68
2023/08/19 19:45:38;;;;;;;8.23;5.97;;;;;;;28.20;49.61;99984.31;10307092;28;20865;-68
2023/08/19 19:50:40;;;;;;;7.63;5.72;;;;;;;29.38;48.00;99956.63;10305850;28;20321;-68
2023/08/19 19:55:42;;;;;;;6.60;5.30;;;;;;;30.48;46.07;99927.88;10298554;28;20595;-68
2023/08/19 20:00:43;;;;;;;8.10;5.35;;;;;;;30.27;46.59;99940.59;10310384;28;20316;-68
2023/08/19 20:05:45;;;;;;;7.80;5.97;;;;;;;28.64;49.33;99985.78;10302630;28;20622;-68
2023/08/19 20:10:50;;;;;;;8.10;5.93;;;;;;;29.86;47.25;99942.38;10309261;28;20239;-68
2023/08/19 20:15:54;;;;;;;7.93;5.78;;;;;;;29.34;48.30;99961.94;10304424;28;20242;-68
2023/08/19 20:20:57;;;;;;;9.18;6.53;;;;;;;29.40;48.65;99948.88;10300436;28;20233;-68
2023/08/19 20:26:00;;;;;;;6.95;5.20;;;;;;;30.01;47.18;99954.97;10318245;28;20237;-68
2023/08/19 20:31:02;;;;;;;9.27;5.82;;;;;;;29.96;46.86;99969.72;10304412;28;20280;-69
2023/08/19 20:36:04;;;;;;;8.65;5.90;;;;;;;27.68;51.68;100023.50;10301594;28;20234;-69
2023/08/19 20:41:06;;;;;;;7.05;5.85;;;;;;;28.89;50.00;99957.00;10302107;28;20321;-68
2023/08/19 20:46:08;;;;;;;7.38;6.20;;;;;;;29.72;47.62;99986.50;10306199;28;20229;-68
2023/08/19 20:51:10;;;;;;;6.95;6.20;;;;;;;29.11;48.00;99996.81;10302368;28;20938;-69
2023/08/19 20:56:12;;;;;;;10.35;5.88;;;;;;;29.31;48.52;99973.59;10302685;28;20238;-68
2023/08/19 21:01:13;;;;;;;8.48;5.53;;;;;;;30.15;46.31;99975.09;10301848;28;20234;-68
2023/08/19 21:06:15;;;;;;;7.95;5.65;;;;;;;30.25;46.00;99985.06;10307890;28;20237;-68
2023/08/19 21:11:17;;;;;;;6.88;5.82;;;;;;;28.48;49.40;100029.28;10299749;28;20367;-66
2023/08/19 21:16:18;;;;;;;7.13;6.43;;;;;;;29.25;48.39;99991.31;10302385;28;20939;-66
2023/08/19 21:21:21;;;;;;;6.82;6.13;;;;;;;29.62;47.28;100001.34;10298876;28;20229;-66
2023/08/19 21:26:23;;;;;;;7.13;6.40;;;;;;;29.36;47.58;100005.75;10299066;28;20277;-66
2023/08/19 21:31:24;;;;;;;11.10;5.75;;;;;;;28.64;49.51;100012.50;10299746;28;20248;-66
2023/08/19 21:36:26;;;;;;;6.85;6.15;;;;;;;29.49;47.51;99986.44;10300973;28;20280;-66
2023/08/19 21:41:28;;;;;;;6.40;5.60;;;;;;;29.44;47.67;99992.06;10297736;28;20237;-66
2023/08/19 21:46:30;;;;;;;6.78;6.00;;;;;;;27.75;50.80;100034.16;10299668;28;20368;-66
2023/08/19 21:51:31;;;;;;;7.20;6.35;;;;;;;28.41;49.10;100020.59;10302501;28;20249;-66
2023/08/19 21:56:33;;;;;;;8.13;5.80;;;;;;;28.27;50.14;100012.25;10296733;28;20242;-66
2023/08/19 22:01:34;;;;;;;7.68;6.22;;;;;;;28.85;48.32;99989.03;10301219;28;20261;-66
2023/08/19 22:06:36;;;;;;;8.82;6.50;;;;;;;27.66;50.54;100036.69;10296712;28;20365;-66
2023/08/19 22:11:39;;;;;;;7.68;5.72;;;;;;;29.06;48.13;100014.25;10303514;28;20313;-66
2023/08/19 22:16:40;;;;;;;7.75;6.72;;;;;;;28.52;49.32;100024.78;10297930;28;20972;-65
2023/08/19 22:21:42;;;;;;;8.43;6.38;;;;;;;28.76;48.07;100018.38;10302362;28;20737;-66
2023/08/19 22:26:44;;;;;;;8.02;6.35;;;;;;;28.08;49.44;100031.50;10296630;28;20235;-66
2023/08/19 22:31:46;;;;;;;7.90;6.80;;;;;;;28.55;49.16;100020.63;10301968;28;20736;-66
2023/08/19 22:36:48;;;;;;;7.88;5.85;;;;;;;29.32;47.04;100013.81;10296489;28;20237;-66
2023/08/19 22:41:49;;;;;;;7.00;6.10;;;;;;;29.02;47.67;100015.19;10293331;28;20233;-66
2023/08/19 22:46:51;;;;;;;8.43;6.65;;;;;;;28.87;47.99;100005.25;10299397;28;20229;-66
2023/08/19 22:51:56;;;;;;;8.98;6.15;;;;;;;27.68;50.50;100025.41;10296391;28;20261;-66
2023/08/19 22:56:57;;;;;;;6.88;6.18;;;;;;;28.12;48.89;100028.97;10308244;28;20251;-66
2023/08/19 23:01:59;;;;;;;8.07;6.30;;;;;;;25.74;54.38;100040.41;10292959;28;20567;-66
2023/08/19 23:07:01;;;;;;;8.82;6.53;;;;;;;27.10;51.34;100021.66;10296510;28;20732;-66
2023/08/19 23:12:07;;;;;;;8.50;6.65;;;;;;;26.10;53.78;100032.03;10292832;28;20233;-66
2023/08/19 23:17:09;;;;;;;8.13;7.20;;;;;;;28.22;49.60;100004.09;10297183;28;20265;-66
2023/08/19 23:22:11;;;;;;;8.00;7.15;;;;;;;27.98;50.35;100018.72;10298801;28;20230;-66
2023/08/19 23:27:12;;;;;;;7.65;6.85;;;;;;;28.05;50.20;100015.59;10292869;28;20242;-66